sensor_id;sensor_type;location;lat;lon;timestamp;pressure;altitude;pressure_sealevel;temperature;humidity
75359;BME280;64046;51.978;5.934;2023-02-28T00:02:01;103034.16;;;6.88;55.71
75359;BME280;64046;51.978;5.934;2023-02-28T00:04:30;103038.56;;;6.97;55.56
75359;BME280;64046;51.978;5.934;2023-02-28T00:06:59;103037.75;;;7.04;55.33
75359;BME280;64046;51.978;5.934;2023-02-28T00:09:29;103040.38;;;7.09;55.38
75359;BME280;64046;51.978;5.934;2023-02-28T00:11:58;103031.72;;;7.15;55.06
75359;BME280;64046;51.978;5.934;2023-02-28T00:14:32;103026.63;;;7.38;54.96
75359;BME280;64046;51.978;5.934;2023-02-28T00:17:01;103031.81;;;7.32;54.85
75359;BME280;64046;51.978;5.934;2023-02-28T00:19:31;103033.56;;;7.36;54.79
75359;BME280;64046;51.978;5.934;2023-02-28T00:22:00;103034.47;;;7.39;54.53
75359;BME280;64046;51.978;5.934;2023-02-28T00:24:29;103039.72;;;7.44;54.39
75359;BME280;64046;51.978;5.934;2023-02-28T00:26:58;103031.88;;;7.39;54.42
75359;BME280;64046;51.978;5.934;2023-02-28T00:29:27;103030.97;;;7.39;54.50
75359;BME280;64046;51.978;5.934;2023-02-28T00:31:59;103038.88;;;7.54;54.39
75359;BME280;64046;51.978;5.934;2023-02-28T00:34:28;103034.50;;;7.42;54.67
75359;BME280;64046;51.978;5.934;2023-02-28T00:37:04;103032.75;;;7.46;54.61
75359;BME280;64046;51.978;5.934;2023-02-28T00:39:35;103035.41;;;7.52;54.55
75359;BME280;64046;51.978;5.934;2023-02-28T00:42:05;103039.75;;;7.56;54.38
75359;BME280;64046;51.978;5.934;2023-02-28T00:44:34;103031.91;;;7.52;54.47
75359;BME280;64046;51.978;5.934;2023-02-28T00:47:06;103038.94;;;7.68;54.19
75359;BME280;64046;51.978;5.934;2023-02-28T00:49:35;103034.53;;;7.53;54.28
75359;BME280;64046;51.978;5.934;2023-02-28T00:52:04;103026.69;;;7.50;54.22
75359;BME280;64046;51.978;5.934;2023-02-28T00:54:34;103029.28;;;7.50;54.48
75359;BME280;64046;51.978;5.934;2023-02-28T00:57:03;103037.13;;;7.53;54.20
75359;BME280;64046;51.978;5.934;2023-02-28T00:59:32;103035.38;;;7.48;54.23
75359;BME280;64046;51.978;5.934;2023-02-28T01:02:01;103026.69;;;7.49;54.56
75359;BME280;64046;51.978;5.934;2023-02-28T01:04:33;103029.38;;;7.67;54.37
75359;BME280;64046;51.978;5.934;2023-02-28T01:07:02;103027.59;;;7.52;54.27
75359;BME280;64046;51.978;5.934;2023-02-28T01:09:32;103027.59;;;7.55;54.17
75359;BME280;64046;51.978;5.934;2023-02-28T01:12:01;103026.75;;;7.59;54.32
75359;BME280;64046;51.978;5.934;2023-02-28T01:14:30;103027.59;;;7.60;54.19
75359;BME280;64046;51.978;5.934;2023-02-28T01:17:00;103034.56;;;7.61;54.10
75359;BME280;64046;51.978;5.934;2023-02-28T01:19:34;103028.53;;;7.79;54.08
75359;BME280;64046;51.978;5.934;2023-02-28T01:22:03;103031.97;;;7.73;53.94
75359;BME280;64046;51.978;5.934;2023-02-28T01:24:34;103036.34;;;7.74;54.01
75359;BME280;64046;51.978;5.934;2023-02-28T01:27:04;103031.97;;;7.70;54.09
75359;BME280;64046;51.978;5.934;2023-02-28T01:29:33;103036.34;;;7.74;54.04
75359;BME280;64046;51.978;5.934;2023-02-28T01:32:02;103038.09;;;7.82;53.99
75359;BME280;64046;51.978;5.934;2023-02-28T01:34:34;103032.94;;;7.99;53.68
75359;BME280;64046;51.978;5.934;2023-02-28T01:37:04;103037.25;;;7.78;53.82
75359;BME280;64046;51.978;5.934;2023-02-28T01:39:33;103037.19;;;7.70;54.07
75359;BME280;64046;51.978;5.934;2023-02-28T01:42:03;103024.16;;;7.69;54.02
75359;BME280;64046;51.978;5.934;2023-02-28T01:45:02;103033.78;;;7.96;53.74
75359;BME280;64046;51.978;5.934;2023-02-28T01:47:33;103029.38;;;7.76;54.38
75359;BME280;64046;51.978;5.934;2023-02-28T01:50:10;103025.91;;;7.84;53.99
75359;BME280;64046;51.978;5.934;2023-02-28T01:52:43;103025.06;;;7.75;54.54
75359;BME280;64046;51.978;5.934;2023-02-28T01:55:13;103027.63;;;7.69;54.51
75359;BME280;64046;51.978;5.934;2023-02-28T01:57:46;103018.09;;;7.82;54.28
75359;BME280;64046;51.978;5.934;2023-02-28T02:00:20;103018.13;;;7.88;54.26
75359;BME280;64046;51.978;5.934;2023-02-28T02:02:52;103018.97;;;7.86;54.13
75359;BME280;64046;51.978;5.934;2023-02-28T02:05:27;103021.59;;;7.86;54.43
75359;BME280;64046;51.978;5.934;2023-02-28T02:08:00;103018.97;;;7.83;54.41
75359;BME280;64046;51.978;5.934;2023-02-28T02:10:34;103019.88;;;7.91;54.40
75359;BME280;64046;51.978;5.934;2023-02-28T02:13:15;103019.88;;;8.02;54.11
75359;BME280;64046;51.978;5.934;2023-02-28T02:15:56;103024.25;;;8.07;53.88
75359;BME280;64046;51.978;5.934;2023-02-28T02:18:33;103023.34;;;8.01;54.17
75359;BME280;64046;51.978;5.934;2023-02-28T02:21:40;103021.63;;;8.13;53.85
75359;BME280;64046;51.978;5.934;2023-02-28T02:27:25;103020.75;;;7.99;54.15
75359;BME280;64046;51.978;5.934;2023-02-28T02:33:30;103020.78;;;8.10;53.55
75359;BME280;64046;51.978;5.934;2023-02-28T02:36:13;103022.50;;;8.05;53.67
75359;BME280;64046;51.978;5.934;2023-02-28T02:38:47;103028.56;;;8.01;53.57
75359;BME280;64046;51.978;5.934;2023-02-28T02:41:24;103022.50;;;8.05;53.43
75359;BME280;64046;51.978;5.934;2023-02-28T02:44:01;103025.13;;;8.08;53.08
75359;BME280;64046;51.978;5.934;2023-02-28T02:46:34;103026.84;;;8.03;52.90
75359;BME280;64046;51.978;5.934;2023-02-28T02:49:06;103031.19;;;8.02;52.99
75359;BME280;64046;51.978;5.934;2023-02-28T02:51:40;103030.31;;;8.02;52.74
75359;BME280;64046;51.978;5.934;2023-02-28T02:54:13;103029.44;;;7.93;52.64
75359;BME280;64046;51.978;5.934;2023-02-28T02:56:47;103030.31;;;7.97;52.34
75359;BME280;64046;51.978;5.934;2023-02-28T02:59:19;103026.81;;;7.96;52.41
75359;BME280;64046;51.978;5.934;2023-02-28T03:01:52;103033.78;;;7.91;52.45
75359;BME280;64046;51.978;5.934;2023-02-28T03:04:24;103034.66;;;7.90;52.39
75359;BME280;64046;51.978;5.934;2023-02-28T03:06:57;103034.66;;;7.93;52.51
75359;BME280;64046;51.978;5.934;2023-02-28T03:09:27;103028.53;;;7.80;52.61
75359;BME280;64046;51.978;5.934;2023-02-28T03:11:57;103041.59;;;7.84;52.47
75359;BME280;64046;51.978;5.934;2023-02-28T03:14:35;103039.00;;;7.90;52.27
75359;BME280;64046;51.978;5.934;2023-02-28T03:17:24;103036.41;;;7.91;52.07
75359;BME280;64046;51.978;5.934;2023-02-28T03:20:04;103035.50;;;7.88;52.07
75359;BME280;64046;51.978;5.934;2023-02-28T03:22:56;103039.00;;;7.93;51.70
75359;BME280;64046;51.978;5.934;2023-02-28T03:25:33;103038.13;;;7.83;51.99
75359;BME280;64046;51.978;5.934;2023-02-28T03:28:11;103036.34;;;7.79;51.90
75359;BME280;64046;51.978;5.934;2023-02-28T03:30:48;103031.16;;;7.84;51.60
75359;BME280;64046;51.978;5.934;2023-02-28T03:33:21;103034.63;;;7.78;51.84
75359;BME280;64046;51.978;5.934;2023-02-28T03:35:54;103032.88;;;7.80;51.67
75359;BME280;64046;51.978;5.934;2023-02-28T03:38:31;103031.16;;;7.84;51.48
75359;BME280;64046;51.978;5.934;2023-02-28T03:41:06;103038.09;;;7.78;51.43
75359;BME280;64046;51.978;5.934;2023-02-28T03:43:41;103029.41;;;7.79;51.68
75359;BME280;64046;51.978;5.934;2023-02-28T03:46:14;103037.22;;;7.73;51.25
75359;BME280;64046;51.978;5.934;2023-02-28T03:48:52;103033.72;;;7.70;51.48
75359;BME280;64046;51.978;5.934;2023-02-28T03:51:23;103033.69;;;7.62;51.33
75359;BME280;64046;51.978;5.934;2023-02-28T03:53:59;103027.59;;;7.63;51.19
75359;BME280;64046;51.978;5.934;2023-02-28T03:56:33;103028.47;;;7.59;51.24
75359;BME280;64046;51.978;5.934;2023-02-28T03:59:06;103023.22;;;7.57;51.01
75359;BME280;64046;51.978;5.934;2023-02-28T04:01:39;103025.84;;;7.53;50.57
75359;BME280;64046;51.978;5.934;2023-02-28T04:04:10;103022.38;;;7.52;50.49
75359;BME280;64046;51.978;5.934;2023-02-28T04:06:41;103017.09;;;7.51;50.10
75359;BME280;64046;51.978;5.934;2023-02-28T04:09:14;103020.63;;;7.63;50.05
75359;BME280;64046;51.978;5.934;2023-02-28T04:11:45;103023.25;;;7.60;49.96
75359;BME280;64046;51.978;5.934;2023-02-28T04:14:14;103024.06;;;7.49;49.71
75359;BME280;64046;51.978;5.934;2023-02-28T04:16:44;103021.47;;;7.53;49.44
75359;BME280;64046;51.978;5.934;2023-02-28T04:19:14;103030.19;;;7.54;49.10
75359;BME280;64046;51.978;5.934;2023-02-28T04:21:45;103026.69;;;7.50;48.93
75359;BME280;64046;51.978;5.934;2023-02-28T04:24:19;103023.22;;;7.56;48.63
75359;BME280;64046;51.978;5.934;2023-02-28T04:26:50;103029.28;;;7.42;48.61
75359;BME280;64046;51.978;5.934;2023-02-28T04:29:21;103024.91;;;7.40;48.43
75359;BME280;64046;51.978;5.934;2023-02-28T04:31:51;103017.91;;;7.26;48.30
75359;BME280;64046;51.978;5.934;2023-02-28T04:34:24;103018.75;;;7.28;48.07
75359;BME280;64046;51.978;5.934;2023-02-28T04:36:54;103018.78;;;7.32;47.91
75359;BME280;64046;51.978;5.934;2023-02-28T04:39:26;103024.00;;;7.36;48.01
75359;BME280;64046;51.978;5.934;2023-02-28T04:41:55;103013.53;;;7.24;47.87
75359;BME280;64046;51.978;5.934;2023-02-28T04:44:25;103017.84;;;7.19;47.75
75359;BME280;64046;51.978;5.934;2023-02-28T04:46:54;103019.56;;;7.14;47.88
75359;BME280;64046;51.978;5.934;2023-02-28T04:49:23;103022.13;;;7.07;48.04
75359;BME280;64046;51.978;5.934;2023-02-28T04:51:52;103020.34;;;7.00;48.46
75359;BME280;64046;51.978;5.934;2023-02-28T04:54:22;103018.63;;;6.99;48.32
75359;BME280;64046;51.978;5.934;2023-02-28T04:56:53;103024.72;;;7.09;48.66
75359;BME280;64046;51.978;5.934;2023-02-28T04:59:23;103013.34;;;6.91;48.92
75359;BME280;64046;51.978;5.934;2023-02-28T05:01:52;103019.38;;;6.87;48.97
75359;BME280;64046;51.978;5.934;2023-02-28T05:04:21;103025.47;;;6.86;49.16
75359;BME280;64046;51.978;5.934;2023-02-28T05:06:50;103021.97;;;6.83;49.34
75359;BME280;64046;51.978;5.934;2023-02-28T05:09:21;103017.59;;;6.77;49.99
75359;BME280;64046;51.978;5.934;2023-02-28T05:11:53;103024.59;;;6.89;50.17
75359;BME280;64046;51.978;5.934;2023-02-28T05:14:22;103021.03;;;6.73;50.32
75359;BME280;64046;51.978;5.934;2023-02-28T05:16:51;103027.13;;;6.73;50.57
75359;BME280;64046;51.978;5.934;2023-02-28T05:19:20;103026.22;;;6.73;50.77
75359;BME280;64046;51.978;5.934;2023-02-28T05:21:51;103018.50;;;6.81;50.96
75359;BME280;64046;51.978;5.934;2023-02-28T05:24:21;103023.69;;;6.81;51.10
75359;BME280;64046;51.978;5.934;2023-02-28T05:26:54;103013.34;;;6.95;51.02
75359;BME280;64046;51.978;5.934;2023-02-28T05:29:24;103020.22;;;6.82;51.37
75359;BME280;64046;51.978;5.934;2023-02-28T05:31:53;103034.13;;;6.82;51.40
75359;BME280;64046;51.978;5.934;2023-02-28T05:34:22;103026.34;;;6.85;51.25
75359;BME280;64046;51.978;5.934;2023-02-28T05:36:51;103034.16;;;6.87;51.56
75359;BME280;64046;51.978;5.934;2023-02-28T05:39:20;103041.94;;;6.82;51.77
75359;BME280;64046;51.978;5.934;2023-02-28T05:41:49;103041.97;;;6.84;51.66
75359;BME280;64046;51.978;5.934;2023-02-28T05:44:21;103029.94;;;7.06;51.62
75359;BME280;64046;51.978;5.934;2023-02-28T05:46:50;103039.44;;;6.98;51.54
75359;BME280;64046;51.978;5.934;2023-02-28T05:49:19;103033.38;;;6.99;51.59
75359;BME280;64046;51.978;5.934;2023-02-28T05:51:48;103035.97;;;7.00;51.40
75359;BME280;64046;51.978;5.934;2023-02-28T05:54:18;103029.91;;;7.03;51.41
75359;BME280;64046;51.978;5.934;2023-02-28T05:56:47;103024.78;;;7.12;51.14
75359;BME280;64046;51.978;5.934;2023-02-28T05:59:16;103041.31;;;7.22;50.72
75359;BME280;64046;51.978;5.934;2023-02-28T06:01:48;103043.16;;;7.40;50.59
75359;BME280;64046;51.978;5.934;2023-02-28T06:04:20;103040.56;;;7.40;50.62
75359;BME280;64046;51.978;5.934;2023-02-28T06:06:50;103042.25;;;7.35;50.74
75359;BME280;64046;51.978;5.934;2023-02-28T06:09:19;103033.56;;;7.34;50.46
75359;BME280;64046;51.978;5.934;2023-02-28T06:11:49;103025.78;;;7.40;50.50
75359;BME280;64046;51.978;5.934;2023-02-28T06:14:19;103051.06;;;7.55;50.47
75359;BME280;64046;51.978;5.934;2023-02-28T06:16:51;103061.53;;;7.65;50.15
75359;BME280;64046;51.978;5.934;2023-02-28T06:19:21;103062.34;;;7.51;50.28
75359;BME280;64046;51.978;5.934;2023-02-28T06:21:52;103049.31;;;7.54;50.17
75359;BME280;64046;51.978;5.934;2023-02-28T06:24:23;103047.56;;;7.50;50.08
75359;BME280;64046;51.978;5.934;2023-02-28T06:26:54;103050.16;;;7.45;50.25
75359;BME280;64046;51.978;5.934;2023-02-28T06:29:25;103059.78;;;7.60;50.09
75359;BME280;64046;51.978;5.934;2023-02-28T06:31:57;103052.00;;;7.71;49.87
75359;BME280;64046;51.978;5.934;2023-02-28T06:34:26;103071.09;;;7.59;49.85
75359;BME280;64046;51.978;5.934;2023-02-28T06:36:55;103073.72;;;7.62;49.43
75359;BME280;64046;51.978;5.934;2023-02-28T06:39:25;103071.97;;;7.66;49.15
75359;BME280;64046;51.978;5.934;2023-02-28T06:41:54;103075.47;;;7.70;49.16
75359;BME280;64046;51.978;5.934;2023-02-28T06:44:24;103072.03;;;7.74;48.83
75359;BME280;64046;51.978;5.934;2023-02-28T06:46:53;103076.34;;;7.66;48.80
75359;BME280;64046;51.978;5.934;2023-02-28T06:49:25;103080.72;;;7.71;48.65
75359;BME280;64046;51.978;5.934;2023-02-28T06:51:54;103085.84;;;7.56;48.54
75359;BME280;64046;51.978;5.934;2023-02-28T06:54:23;103078.03;;;7.59;48.40
75359;BME280;64046;51.978;5.934;2023-02-28T06:56:53;103088.47;;;7.62;48.20
75359;BME280;64046;51.978;5.934;2023-02-28T06:59:22;103085.00;;;7.65;48.11
75359;BME280;64046;51.978;5.934;2023-02-28T07:01:52;103086.78;;;7.67;47.98
75359;BME280;64046;51.978;5.934;2023-02-28T07:04:21;103091.13;;;7.68;47.84
75359;BME280;64046;51.978;5.934;2023-02-28T07:06:53;103104.22;;;7.82;47.96
75359;BME280;64046;51.978;5.934;2023-02-28T07:09:23;103097.22;;;7.69;47.92
75359;BME280;64046;51.978;5.934;2023-02-28T07:11:56;103097.22;;;7.67;47.84
75359;BME280;64046;51.978;5.934;2023-02-28T07:14:26;103096.34;;;7.68;47.76
75359;BME280;64046;51.978;5.934;2023-02-28T07:16:55;103100.66;;;7.61;47.58
75359;BME280;64046;51.978;5.934;2023-02-28T07:19:25;103099.81;;;7.62;47.61
75359;BME280;64046;51.978;5.934;2023-02-28T07:21:56;103094.63;;;7.76;47.30
75359;BME280;64046;51.978;5.934;2023-02-28T07:24:27;103102.44;;;7.67;47.41
75359;BME280;64046;51.978;5.934;2023-02-28T07:26:56;103095.47;;;7.68;47.09
75359;BME280;64046;51.978;5.934;2023-02-28T07:29:25;103102.44;;;7.69;47.16
75359;BME280;64046;51.978;5.934;2023-02-28T07:31:55;103093.75;;;7.70;46.88
75359;BME280;64046;51.978;5.934;2023-02-28T07:34:24;103105.03;;;7.67;46.72
75359;BME280;64046;51.978;5.934;2023-02-28T07:36:57;103108.56;;;7.75;46.59
75359;BME280;64046;51.978;5.934;2023-02-28T07:39:29;103106.75;;;7.63;46.71
75359;BME280;64046;51.978;5.934;2023-02-28T07:41:58;103111.13;;;7.68;46.52
75359;BME280;64046;51.978;5.934;2023-02-28T07:44:29;103111.16;;;7.74;46.59
75359;BME280;64046;51.978;5.934;2023-02-28T07:46:58;103109.44;;;7.76;46.30
75359;BME280;64046;51.978;5.934;2023-02-28T07:49:28;103105.06;;;7.75;46.24
75359;BME280;64046;51.978;5.934;2023-02-28T07:52:00;103116.47;;;7.97;46.22
75359;BME280;64046;51.978;5.934;2023-02-28T07:54:30;103103.38;;;7.86;45.89
75359;BME280;64046;51.978;5.934;2023-02-28T07:56:59;103110.34;;;7.86;45.80
75359;BME280;64046;51.978;5.934;2023-02-28T07:59:28;103116.44;;;7.88;45.64
75359;BME280;64046;51.978;5.934;2023-02-28T08:01:58;103115.59;;;7.93;45.50
75359;BME280;64046;51.978;5.934;2023-02-28T08:04:27;103109.53;;;8.04;45.06
75359;BME280;64046;51.978;5.934;2023-02-28T08:06:56;103104.34;;;8.10;44.88
75359;BME280;64046;51.978;5.934;2023-02-28T08:09:28;103116.56;;;8.25;44.52
75359;BME280;64046;51.978;5.934;2023-02-28T08:11:57;103126.94;;;8.08;44.54
75359;BME280;64046;51.978;5.934;2023-02-28T08:14:26;103121.75;;;8.11;44.46
75359;BME280;64046;51.978;5.934;2023-02-28T08:16:56;103124.38;;;8.11;44.22
75359;BME280;64046;51.978;5.934;2023-02-28T08:19:25;103124.38;;;8.14;43.82
75359;BME280;64046;51.978;5.934;2023-02-28T08:21:54;103133.06;;;8.07;43.60
75359;BME280;64046;51.978;5.934;2023-02-28T08:24:24;103133.91;;;8.06;42.99
75359;BME280;64046;51.978;5.934;2023-02-28T08:26:56;103128.75;;;8.18;42.45
75359;BME280;64046;51.978;5.934;2023-02-28T08:29:25;103121.72;;;8.02;42.27
75359;BME280;64046;51.978;5.934;2023-02-28T08:31:56;103126.06;;;8.04;41.91
75359;BME280;64046;51.978;5.934;2023-02-28T08:34:25;103124.31;;;8.03;41.41
75359;BME280;64046;51.978;5.934;2023-02-28T08:36:54;103119.97;;;8.02;41.35
75359;BME280;64046;51.978;5.934;2023-02-28T08:39:23;103130.41;;;8.04;41.17
75359;BME280;64046;51.978;5.934;2023-02-28T08:41:55;103130.41;;;8.01;40.81
75359;BME280;64046;51.978;5.934;2023-02-28T08:44:25;103119.97;;;8.04;40.75
75359;BME280;64046;51.978;5.934;2023-02-28T08:46:54;103119.09;;;8.06;40.37
75359;BME280;64046;51.978;5.934;2023-02-28T08:49:23;103124.34;;;8.08;40.15
75359;BME280;64046;51.978;5.934;2023-02-28T08:51:52;103123.47;;;8.12;40.04
75359;BME280;64046;51.978;5.934;2023-02-28T08:54:23;103127.00;;;8.16;39.71
75359;BME280;64046;51.978;5.934;2023-02-28T08:56:57;103125.28;;;8.36;39.95
75359;BME280;64046;51.978;5.934;2023-02-28T08:59:28;103113.97;;;8.39;39.58
75359;BME280;64046;51.978;5.934;2023-02-28T09:01:58;103119.22;;;8.34;39.54
75359;BME280;64046;51.978;5.934;2023-02-28T09:04:27;103120.94;;;8.37;39.32
75359;BME280;64046;51.978;5.934;2023-02-28T09:06:57;103114.84;;;8.36;39.16
75359;BME280;64046;51.978;5.934;2023-02-28T09:09:26;103117.47;;;8.41;39.10
75359;BME280;64046;51.978;5.934;2023-02-28T09:11:58;103122.75;;;8.61;38.97
75359;BME280;64046;51.978;5.934;2023-02-28T09:14:27;103122.75;;;8.52;38.83
75359;BME280;64046;51.978;5.934;2023-02-28T09:16:57;103117.50;;;8.61;38.54
75359;BME280;64046;51.978;5.934;2023-02-28T09:19:27;103129.72;;;8.60;37.83
75359;BME280;64046;51.978;5.934;2023-02-28T09:21:56;103131.47;;;8.64;37.66
75359;BME280;64046;51.978;5.934;2023-02-28T09:24:25;103125.38;;;8.69;37.25
75359;BME280;64046;51.978;5.934;2023-02-28T09:26:54;103121.91;;;8.74;37.05
75359;BME280;64046;51.978;5.934;2023-02-28T09:29:26;103121.91;;;8.91;36.56
75359;BME280;64046;51.978;5.934;2023-02-28T09:31:55;103123.63;;;8.74;36.69
75359;BME280;64046;51.978;5.934;2023-02-28T09:34:24;103128.00;;;8.75;36.67
75359;BME280;64046;51.978;5.934;2023-02-28T09:36:54;103134.97;;;8.73;36.25
75359;BME280;64046;51.978;5.934;2023-02-28T09:39:23;103133.22;;;8.76;36.04
75359;BME280;64046;51.978;5.934;2023-02-28T09:41:54;103116.66;;;8.80;35.90
75359;BME280;64046;51.978;5.934;2023-02-28T09:44:31;103119.31;;;8.91;35.53
75359;BME280;64046;51.978;5.934;2023-02-28T09:47:10;103115.78;;;8.89;35.55
75359;BME280;64046;51.978;5.934;2023-02-28T09:49:45;103113.19;;;8.92;35.76
75359;BME280;64046;51.978;5.934;2023-02-28T09:52:18;103116.66;;;9.00;35.67
75359;BME280;64046;51.978;5.934;2023-02-28T09:54:47;103115.78;;;8.89;35.67
75359;BME280;64046;51.978;5.934;2023-02-28T09:57:19;103123.63;;;9.11;35.58
75359;BME280;64046;51.978;5.934;2023-02-28T10:00:04;103114.88;;;9.20;35.13
75359;BME280;64046;51.978;5.934;2023-02-28T10:02:56;103119.25;;;9.25;34.94
75359;BME280;64046;51.978;5.934;2023-02-28T10:05:32;103120.13;;;9.21;35.31
75359;BME280;64046;51.978;5.934;2023-02-28T10:08:07;103116.63;;;9.28;35.01
75359;BME280;64046;51.978;5.934;2023-02-28T10:10:42;103116.63;;;9.27;34.63
75359;BME280;64046;51.978;5.934;2023-02-28T10:13:16;103110.50;;;9.32;34.54
75359;BME280;64046;51.978;5.934;2023-02-28T10:15:52;103103.53;;;9.34;34.34
75359;BME280;64046;51.978;5.934;2023-02-28T10:18:25;103107.03;;;9.33;34.09
75359;BME280;64046;51.978;5.934;2023-02-28T10:20:57;103113.13;;;9.31;34.06
75359;BME280;64046;51.978;5.934;2023-02-28T10:23:28;103108.78;;;9.31;34.16
75359;BME280;64046;51.978;5.934;2023-02-28T10:26:08;103114.00;;;9.36;33.90
75359;BME280;64046;51.978;5.934;2023-02-28T10:28:39;103102.66;;;9.31;33.90
75359;BME280;64046;51.978;5.934;2023-02-28T10:31:15;103109.63;;;9.46;33.97
75359;BME280;64046;51.978;5.934;2023-02-28T10:33:48;103100.94;;;9.34;33.91
75359;BME280;64046;51.978;5.934;2023-02-28T10:36:20;103100.06;;;9.39;33.87
75359;BME280;64046;51.978;5.934;2023-02-28T10:38:50;103099.16;;;9.35;33.88
75359;BME280;64046;51.978;5.934;2023-02-28T10:41:28;103098.22;;;9.61;33.93
75359;BME280;64046;51.978;5.934;2023-02-28T10:44:15;103091.19;;;9.74;33.73
75359;BME280;64046;51.978;5.934;2023-02-28T10:46:50;103100.84;;;9.70;33.97
75359;BME280;64046;51.978;5.934;2023-02-28T10:49:22;103094.72;;;9.63;33.97
75359;BME280;64046;51.978;5.934;2023-02-28T10:51:54;103100.00;;;9.56;34.11
75359;BME280;64046;51.978;5.934;2023-02-28T10:54:28;103092.13;;;9.63;34.04
75359;BME280;64046;51.978;5.934;2023-02-28T10:57:16;103086.84;;;9.71;33.77
75359;BME280;64046;51.978;5.934;2023-02-28T10:59:50;103085.13;;;9.65;34.01
75359;BME280;64046;51.978;5.934;2023-02-28T11:02:35;103089.44;;;9.73;33.94
75359;BME280;64046;51.978;5.934;2023-02-28T11:05:24;103092.94;;;9.78;34.08
75359;BME280;64046;51.978;5.934;2023-02-28T11:07:55;103086.84;;;9.69;34.04
75359;BME280;64046;51.978;5.934;2023-02-28T11:10:29;103083.38;;;9.70;33.95
75359;BME280;64046;51.978;5.934;2023-02-28T11:13:01;103074.72;;;9.53;34.09
75359;BME280;64046;51.978;5.934;2023-02-28T11:15:33;103077.31;;;9.56;33.99
75359;BME280;64046;51.978;5.934;2023-02-28T11:18:19;103072.06;;;9.61;33.72
75359;BME280;64046;51.978;5.934;2023-02-28T11:20:51;103079.97;;;9.44;33.86
75359;BME280;64046;51.978;5.934;2023-02-28T11:23:21;103071.25;;;9.42;33.96
75359;BME280;64046;51.978;5.934;2023-02-28T11:25:56;103074.72;;;9.45;33.72
75359;BME280;64046;51.978;5.934;2023-02-28T11:28:30;103059.03;;;9.44;33.80
75359;BME280;64046;51.978;5.934;2023-02-28T11:31:03;103066.00;;;9.48;33.77
75359;BME280;64046;51.978;5.934;2023-02-28T11:33:40;103062.44;;;9.67;33.69
75359;BME280;64046;51.978;5.934;2023-02-28T11:36:13;103067.69;;;9.66;33.53
75359;BME280;64046;51.978;5.934;2023-02-28T11:38:43;103066.81;;;9.61;33.50
75359;BME280;64046;51.978;5.934;2023-02-28T11:44:19;103059.69;;;9.91;33.24
75359;BME280;64046;51.978;5.934;2023-02-28T11:46:54;103060.59;;;9.86;33.35
75359;BME280;64046;51.978;5.934;2023-02-28T11:49:35;103061.38;;;10.02;33.11
75359;BME280;64046;51.978;5.934;2023-02-28T11:52:15;103056.16;;;10.01;33.11
75359;BME280;64046;51.978;5.934;2023-02-28T11:54:58;103057.03;;;10.03;32.85
75359;BME280;64046;51.978;5.934;2023-02-28T11:57:35;103064.91;;;9.94;32.79
75359;BME280;64046;51.978;5.934;2023-02-28T12:00:15;103054.47;;;9.91;33.08
75359;BME280;64046;51.978;5.934;2023-02-28T12:02:59;103043.97;;;9.92;32.92
75359;BME280;64046;51.978;5.934;2023-02-28T12:05:40;103041.44;;;9.83;33.04
75359;BME280;64046;51.978;5.934;2023-02-28T12:08:26;103036.16;;;9.86;33.01
75359;BME280;64046;51.978;5.934;2023-02-28T12:11:10;103040.47;;;9.96;32.91
75359;BME280;64046;51.978;5.934;2023-02-28T12:13:48;103035.22;;;9.96;32.98
75359;BME280;64046;51.978;5.934;2023-02-28T12:16:32;103032.53;;;10.07;33.01
75359;BME280;64046;51.978;5.934;2023-02-28T12:19:17;103035.13;;;10.15;33.03
75359;BME280;64046;51.978;5.934;2023-02-28T12:22:05;103020.25;;;10.17;32.73
75359;BME280;64046;51.978;5.934;2023-02-28T12:24:55;103016.72;;;10.21;32.97
75359;BME280;64046;51.978;5.934;2023-02-28T12:27:34;103018.50;;;10.19;32.75
75359;BME280;64046;51.978;5.934;2023-02-28T12:30:14;103020.22;;;10.18;32.67
75359;BME280;64046;51.978;5.934;2023-02-28T12:32:48;103021.22;;;10.03;32.65
75359;BME280;64046;51.978;5.934;2023-02-28T12:35:22;103014.25;;;9.99;32.79
75359;BME280;64046;51.978;5.934;2023-02-28T12:38:01;103022.03;;;10.12;32.50
75359;BME280;64046;51.978;5.934;2023-02-28T12:40:42;103016.81;;;10.12;32.22
75359;BME280;64046;51.978;5.934;2023-02-28T12:43:13;103001.22;;;9.92;32.16
75359;BME280;64046;51.978;5.934;2023-02-28T12:45:47;103011.69;;;9.93;32.45
75359;BME280;64046;51.978;5.934;2023-02-28T12:48:20;103005.56;;;9.91;32.39
75359;BME280;64046;51.978;5.934;2023-02-28T12:50:51;102989.88;;;9.88;32.50
75359;BME280;64046;51.978;5.934;2023-02-28T12:53:27;102988.88;;;10.09;32.44
75359;BME280;64046;51.978;5.934;2023-02-28T12:56:09;102999.31;;;10.14;31.98
75359;BME280;64046;51.978;5.934;2023-02-28T12:58:44;102995.88;;;10.04;32.14
75359;BME280;64046;51.978;5.934;2023-02-28T13:01:38;102997.53;;;10.14;31.82
75359;BME280;64046;51.978;5.934;2023-02-28T13:04:45;102989.69;;;10.14;31.75
75359;BME280;64046;51.978;5.934;2023-02-28T13:10:24;102980.19;;;10.01;32.05
75359;BME280;64046;51.978;5.934;2023-02-28T13:12:54;102982.00;;;9.96;32.06
75359;BME280;64046;51.978;5.934;2023-02-28T13:15:26;102990.72;;;9.95;32.01
75359;BME280;64046;51.978;5.934;2023-02-28T13:17:58;102972.34;;;10.01;32.04
75359;BME280;64046;51.978;5.934;2023-02-28T13:20:31;102967.91;;;10.09;32.37
75359;BME280;64046;51.978;5.934;2023-02-28T13:23:03;102974.00;;;10.10;32.13
75359;BME280;64046;51.978;5.934;2023-02-28T13:25:52;102970.34;;;10.32;31.64
75359;BME280;64046;51.978;5.934;2023-02-28T13:34:35;102956.53;;;10.12;31.94
75359;BME280;64046;51.978;5.934;2023-02-28T13:37:33;102959.88;;;10.31;31.92
75359;BME280;64046;51.978;5.934;2023-02-28T13:40:28;102972.97;;;10.32;31.64
75359;BME280;64046;51.978;5.934;2023-02-28T13:43:07;102961.66;;;10.26;31.67
75359;BME280;64046;51.978;5.934;2023-02-28T13:45:37;102964.41;;;10.07;31.82
75359;BME280;64046;51.978;5.934;2023-02-28T13:48:18;102986.09;;;10.31;31.48
75359;BME280;64046;51.978;5.934;2023-02-28T13:50:48;102961.00;;;10.00;31.62